sensor_id;sensor_type;location;lat;lon;timestamp;pressure;altitude;pressure_sealevel;temperature;humidity
46379;BME280;32084;42.254;22.744;2023-06-22T00:01:51;95607.78;;;18.73;100.00
46379;BME280;32084;42.254;22.744;2023-06-22T00:04:17;95610.91;;;18.70;100.00
46379;BME280;32084;42.254;22.744;2023-06-22T00:06:43;95606.06;;;18.66;100.00
46379;BME280;32084;42.254;22.744;2023-06-22T00:09:09;95606.25;;;18.58;100.00
46379;BME280;32084;42.254;22.744;2023-06-22T00:11:36;95607.97;;;18.72;100.00
46379;BME280;32084;42.254;22.744;2023-06-22T00:14:03;95608.03;;;18.79;100.00
46379;BME280;32084;42.254;22.744;2023-06-22T00:16:29;95609.13;;;18.84;100.00
46379;BME280;32084;42.254;22.744;2023-06-22T00:18:55;95592.88;;;18.84;100.00
46379;BME280;32084;42.254;22.744;2023-06-22T00:21:21;95600.19;;;18.90;100.00
46379;BME280;32084;42.254;22.744;2023-06-22T00:23:47;95610.59;;;18.87;99.83
46379;BME280;32084;42.254;22.744;2023-06-22T00:26:13;95604.09;;;18.81;99.71
46379;BME280;32084;42.254;22.744;2023-06-22T00:28:39;95604.25;;;18.73;99.61
46379;BME280;32084;42.254;22.744;2023-06-22T00:31:05;95599.84;;;18.72;99.75
46379;BME280;32084;42.254;22.744;2023-06-22T00:33:31;95597.50;;;18.62;99.49
46379;BME280;32084;42.254;22.744;2023-06-22T00:35:57;95598.00;;;18.38;100.00
46379;BME280;32084;42.254;22.744;2023-06-22T00:38:23;95596.53;;;18.35;100.00
46379;BME280;32084;42.254;22.744;2023-06-22T00:40:49;95575.72;;;18.36;100.00
46379;BME280;32084;42.254;22.744;2023-06-22T00:43:15;95595.06;;;18.67;99.74
46379;BME280;32084;42.254;22.744;2023-06-22T00:45:41;95590.06;;;18.71;99.88
46379;BME280;32084;42.254;22.744;2023-06-22T00:48:07;95594.03;;;18.75;99.59
46379;BME280;32084;42.254;22.744;2023-06-22T00:50:34;95586.53;;;18.77;99.47
46379;BME280;32084;42.254;22.744;2023-06-22T00:53:05;95592.44;;;18.81;100.00
46379;BME280;32084;42.254;22.744;2023-06-22T00:55:37;95595.25;;;18.66;99.36
46379;BME280;32084;42.254;22.744;2023-06-22T00:58:05;95589.13;;;18.50;99.67
46379;BME280;32084;42.254;22.744;2023-06-22T01:00:33;95595.34;;;18.44;100.00
46379;BME280;32084;42.254;22.744;2023-06-22T01:02:59;95591.13;;;18.35;100.00
46379;BME280;32084;42.254;22.744;2023-06-22T01:05:25;95601.16;;;18.41;99.98
46379;BME280;32084;42.254;22.744;2023-06-22T01:08:58;95611.97;;;18.41;100.00
46379;BME280;32084;42.254;22.744;2023-06-22T01:13:21;95618.84;;;18.44;100.00
46379;BME280;32084;42.254;22.744;2023-06-22T01:15:55;95613.50;;;18.50;100.00
46379;BME280;32084;42.254;22.744;2023-06-22T01:18:23;95610.31;;;18.40;99.99
46379;BME280;32084;42.254;22.744;2023-06-22T01:20:52;95594.38;;;17.95;100.00
46379;BME280;32084;42.254;22.744;2023-06-22T01:31:10;95613.69;;;17.71;100.00
46379;BME280;32084;42.254;22.744;2023-06-22T01:33:37;95617.00;;;17.88;100.00
46379;BME280;32084;42.254;22.744;2023-06-22T01:36:04;95617.91;;;17.95;100.00
46379;BME280;32084;42.254;22.744;2023-06-22T01:38:32;95609.53;;;17.90;100.00
46379;BME280;32084;42.254;22.744;2023-06-22T01:40:59;95613.44;;;17.66;100.00
46379;BME280;32084;42.254;22.744;2023-06-22T01:43:26;95624.41;;;17.58;100.00
46379;BME280;32084;42.254;22.744;2023-06-22T01:45:53;95627.03;;;17.72;100.00
46379;BME280;32084;42.254;22.744;2023-06-22T01:48:19;95620.28;;;17.83;100.00
46379;BME280;32084;42.254;22.744;2023-06-22T01:50:46;95630.16;;;17.91;100.00
46379;BME280;32084;42.254;22.744;2023-06-22T01:53:12;95627.94;;;17.80;100.00
46379;BME280;32084;42.254;22.744;2023-06-22T01:55:38;95634.47;;;17.49;100.00
46379;BME280;32084;42.254;22.744;2023-06-22T01:58:04;95634.75;;;17.32;100.00
46379;BME280;32084;42.254;22.744;2023-06-22T02:00:34;95633.19;;;17.45;100.00
46379;BME280;32084;42.254;22.744;2023-06-22T02:03:03;95629.72;;;17.51;100.00
46379;BME280;32084;42.254;22.744;2023-06-22T02:05:31;95628.19;;;17.42;100.00
46379;BME280;32084;42.254;22.744;2023-06-22T02:08:02;95631.78;;;17.49;100.00
46379;BME280;32084;42.254;22.744;2023-06-22T02:10:31;95619.69;;;17.66;100.00
46379;BME280;32084;42.254;22.744;2023-06-22T02:12:58;95632.59;;;17.64;100.00
46379;BME280;32084;42.254;22.744;2023-06-22T02:15:25;95627.00;;;17.51;100.00
46379;BME280;32084;42.254;22.744;2023-06-22T02:17:51;95625.63;;;17.55;100.00
46379;BME280;32084;42.254;22.744;2023-06-22T02:20:17;95632.28;;;17.37;100.00
46379;BME280;32084;42.254;22.744;2023-06-22T02:22:43;95618.44;;;17.26;100.00
46379;BME280;32084;42.254;22.744;2023-06-22T02:25:09;95628.16;;;17.20;100.00
46379;BME280;32084;42.254;22.744;2023-06-22T02:27:36;95632.22;;;17.31;100.00
46379;BME280;32084;42.254;22.744;2023-06-22T02:30:02;95635.44;;;17.41;100.00
46379;BME280;32084;42.254;22.744;2023-06-22T02:32:29;95625.03;;;17.60;100.00
46379;BME280;32084;42.254;22.744;2023-06-22T02:34:55;95615.56;;;17.70;100.00
46379;BME280;32084;42.254;22.744;2023-06-22T02:37:21;95615.81;;;17.75;100.00
46379;BME280;32084;42.254;22.744;2023-06-22T02:39:50;95628.25;;;17.70;100.00
46379;BME280;32084;42.254;22.744;2023-06-22T02:42:16;95624.66;;;17.63;100.00
46379;BME280;32084;42.254;22.744;2023-06-22T02:44:46;95631.78;;;17.49;100.00
46379;BME280;32084;42.254;22.744;2023-06-22T02:47:12;95628.84;;;17.44;100.00
46379;BME280;32084;42.254;22.744;2023-06-22T02:49:38;95619.13;;;17.49;100.00
46379;BME280;32084;42.254;22.744;2023-06-22T02:52:04;95625.63;;;17.55;100.00
46379;BME280;32084;42.254;22.744;2023-06-22T02:54:30;95626.00;;;17.52;100.00
46379;BME280;32084;42.254;22.744;2023-06-22T02:56:56;95626.00;;;17.52;100.00
46379;BME280;32084;42.254;22.744;2023-06-22T02:59:22;95613.50;;;17.51;100.00
46379;BME280;32084;42.254;22.744;2023-06-22T03:01:49;95615.44;;;17.57;100.00
46379;BME280;32084;42.254;22.744;2023-06-22T03:04:16;95617.97;;;17.59;100.00
46379;BME280;32084;42.254;22.744;2023-06-22T03:06:42;95626.72;;;17.61;100.00
46379;BME280;32084;42.254;22.744;2023-06-22T03:09:08;95626.72;;;17.61;100.00
46379;BME280;32084;42.254;22.744;2023-06-22T03:11:34;95625.88;;;17.39;100.00
46379;BME280;32084;42.254;22.744;2023-06-22T03:14:00;95626.75;;;17.24;100.00
46379;BME280;32084;42.254;22.744;2023-06-22T03:16:27;95646.22;;;17.20;100.00
46379;BME280;32084;42.254;22.744;2023-06-22T03:18:53;95644.31;;;17.13;100.00
46379;BME280;32084;42.254;22.744;2023-06-22T03:21:22;95646.97;;;17.28;100.00
46379;BME280;32084;42.254;22.744;2023-06-22T03:23:48;95644.44;;;17.27;100.00
46379;BME280;32084;42.254;22.744;2023-06-22T03:26:16;95653.63;;;17.47;100.00
46379;BME280;32084;42.254;22.744;2023-06-22T03:28:42;95656.84;;;17.58;100.00
46379;BME280;32084;42.254;22.744;2023-06-22T03:31:08;95665.22;;;17.63;100.00
46379;BME280;32084;42.254;22.744;2023-06-22T03:33:34;95665.97;;;17.56;100.00
46379;BME280;32084;42.254;22.744;2023-06-22T03:36:00;95686.50;;;17.51;100.00
46379;BME280;32084;42.254;22.744;2023-06-22T03:38:26;95681.41;;;17.41;100.00
46379;BME280;32084;42.254;22.744;2023-06-22T03:40:53;95671.78;;;17.53;100.00
46379;BME280;32084;42.254;22.744;2023-06-22T03:43:19;95675.75;;;17.58;100.00
46379;BME280;32084;42.254;22.744;2023-06-22T03:45:45;95677.19;;;17.75;100.00
46379;BME280;32084;42.254;22.744;2023-06-22T03:48:11;95674.13;;;18.00;100.00
46379;BME280;32084;42.254;22.744;2023-06-22T03:50:37;95677.22;;;18.25;99.92
46379;BME280;32084;42.254;22.744;2023-06-22T03:53:04;95676.84;;;18.56;99.94
46379;BME280;32084;42.254;22.744;2023-06-22T03:55:30;95681.16;;;18.79;100.00
46379;BME280;32084;42.254;22.744;2023-06-22T03:57:56;95681.03;;;18.30;100.00
46379;BME280;32084;42.254;22.744;2023-06-22T04:00:23;95676.81;;;18.21;100.00
46379;BME280;32084;42.254;22.744;2023-06-22T04:02:49;95679.81;;;18.33;100.00
46379;BME280;32084;42.254;22.744;2023-06-22T04:05:15;95682.25;;;18.56;100.00
46379;BME280;32084;42.254;22.744;2023-06-22T04:07:43;95682.66;;;18.81;100.00
46379;BME280;32084;42.254;22.744;2023-06-22T04:10:09;95679.22;;;19.01;100.00
46379;BME280;32084;42.254;22.744;2023-06-22T04:12:35;95686.13;;;19.03;100.00
46379;BME280;32084;42.254;22.744;2023-06-22T04:15:01;95695.31;;;19.09;100.00
46379;BME280;32084;42.254;22.744;2023-06-22T04:17:27;95687.88;;;19.24;100.00
46379;BME280;32084;42.254;22.744;2023-06-22T04:19:53;95672.53;;;19.51;99.04
46379;BME280;32084;42.254;22.744;2023-06-22T04:22:19;95674.66;;;19.63;98.54
46379;BME280;32084;42.254;22.744;2023-06-22T04:24:45;95670.97;;;19.84;99.27
46379;BME280;32084;42.254;22.744;2023-06-22T04:27:11;95675.81;;;20.15;96.87
46379;BME280;32084;42.254;22.744;2023-06-22T04:29:38;95681.66;;;20.25;97.46
46379;BME280;32084;42.254;22.744;2023-06-22T04:32:09;95677.47;;;20.09;99.07
46379;BME280;32084;42.254;22.744;2023-06-22T04:34:38;95669.31;;;20.03;100.00
46379;BME280;32084;42.254;22.744;2023-06-22T04:37:04;95671.41;;;20.27;97.82
46379;BME280;32084;42.254;22.744;2023-06-22T04:39:30;95680.63;;;20.60;96.90
46379;BME280;32084;42.254;22.744;2023-06-22T04:41:57;95685.97;;;21.00;95.18
46379;BME280;32084;42.254;22.744;2023-06-22T04:44:26;95676.13;;;21.12;93.16
46379;BME280;32084;42.254;22.744;2023-06-22T04:46:53;95670.34;;;21.47;90.86
46379;BME280;32084;42.254;22.744;2023-06-22T04:49:20;95661.56;;;21.52;90.05
46379;BME280;32084;42.254;22.744;2023-06-22T04:51:46;95664.81;;;21.67;89.50
46379;BME280;32084;42.254;22.744;2023-06-22T04:54:13;95661.97;;;21.87;88.98
46379;BME280;32084;42.254;22.744;2023-06-22T04:56:39;95658.91;;;21.77;87.88
46379;BME280;32084;42.254;22.744;2023-06-22T04:59:06;95671.09;;;21.68;88.83
46379;BME280;32084;42.254;22.744;2023-06-22T05:01:32;95668.22;;;21.56;88.75
46379;BME280;32084;42.254;22.744;2023-06-22T05:04:00;95671.91;;;21.68;88.33
46379;BME280;32084;42.254;22.744;2023-06-22T05:06:27;95675.63;;;21.80;88.54
46379;BME280;32084;42.254;22.744;2023-06-22T05:08:53;95675.53;;;21.94;87.06
46379;BME280;32084;42.254;22.744;2023-06-22T05:11:24;95684.56;;;22.26;83.58
46379;BME280;32084;42.254;22.744;2023-06-22T05:13:50;95688.72;;;22.29;84.78
46379;BME280;32084;42.254;22.744;2023-06-22T05:16:16;95686.78;;;22.36;85.68
46379;BME280;32084;42.254;22.744;2023-06-22T05:18:42;95683.56;;;22.14;83.46
46379;BME280;32084;42.254;22.744;2023-06-22T05:21:09;95689.25;;;22.12;83.66
46379;BME280;32084;42.254;22.744;2023-06-22T05:23:35;95686.84;;;22.29;84.86
46379;BME280;32084;42.254;22.744;2023-06-22T05:26:01;95687.56;;;22.43;82.32
46379;BME280;32084;42.254;22.744;2023-06-22T05:28:27;95686.50;;;22.44;81.75
46379;BME280;32084;42.254;22.744;2023-06-22T05:30:53;95695.31;;;22.46;81.88
46379;BME280;32084;42.254;22.744;2023-06-22T05:33:19;95688.56;;;22.49;80.88
46379;BME280;32084;42.254;22.744;2023-06-22T05:35:45;95685.81;;;22.74;80.71
46379;BME280;32084;42.254;22.744;2023-06-22T05:38:12;95686.50;;;22.88;82.43
46379;BME280;32084;42.254;22.744;2023-06-22T05:40:38;95688.38;;;22.94;82.60
46379;BME280;32084;42.254;22.744;2023-06-22T05:43:04;95693.56;;;22.95;83.54
46379;BME280;32084;42.254;22.744;2023-06-22T05:45:30;95693.31;;;23.04;82.71
46379;BME280;32084;42.254;22.744;2023-06-22T05:47:56;95698.63;;;23.17;81.55
46379;BME280;32084;42.254;22.744;2023-06-22T05:50:22;95703.94;;;23.30;81.48
46379;BME280;32084;42.254;22.744;2023-06-22T05:52:48;95702.41;;;23.53;81.30
46379;BME280;32084;42.254;22.744;2023-06-22T05:55:14;95698.81;;;23.71;81.02
46379;BME280;32084;42.254;22.744;2023-06-22T05:57:41;95694.09;;;23.78;79.66
46379;BME280;32084;42.254;22.744;2023-06-22T06:00:07;95704.00;;;23.61;80.39
46379;BME280;32084;42.254;22.744;2023-06-22T06:02:36;95706.84;;;23.84;78.97
46379;BME280;32084;42.254;22.744;2023-06-22T06:05:02;95705.69;;;23.92;79.48
46379;BME280;32084;42.254;22.744;2023-06-22T06:07:29;95709.88;;;23.94;79.76
46379;BME280;32084;42.254;22.744;2023-06-22T06:09:55;95704.63;;;24.23;77.93
46379;BME280;32084;42.254;22.744;2023-06-22T06:12:21;95711.91;;;24.41;76.15
46379;BME280;32084;42.254;22.744;2023-06-22T06:14:47;95702.69;;;24.54;72.61
46379;BME280;32084;42.254;22.744;2023-06-22T06:17:13;95706.50;;;24.65;74.72
46379;BME280;32084;42.254;22.744;2023-06-22T06:23:14;95693.44;;;24.55;77.40
46379;BME280;32084;42.254;22.744;2023-06-22T06:25:40;95692.25;;;24.63;73.39
46379;BME280;32084;42.254;22.744;2023-06-22T06:28:07;95686.06;;;24.67;75.53
46379;BME280;32084;42.254;22.744;2023-06-22T06:30:34;95691.16;;;24.75;76.45
46379;BME280;32084;42.254;22.744;2023-06-22T06:33:03;95685.38;;;24.84;74.99
46379;BME280;32084;42.254;22.744;2023-06-22T06:35:34;95689.88;;;24.78;75.58
46379;BME280;32084;42.254;22.744;2023-06-22T06:38:00;95683.91;;;24.81;74.81
46379;BME280;32084;42.254;22.744;2023-06-22T06:40:26;95686.78;;;24.86;74.42
46379;BME280;32084;42.254;22.744;2023-06-22T06:42:52;95691.66;;;25.20;77.26
46379;BME280;32084;42.254;22.744;2023-06-22T06:45:19;95690.56;;;25.32;76.79
46379;BME280;32084;42.254;22.744;2023-06-22T06:47:46;95694.78;;;25.64;74.32
46379;BME280;32084;42.254;22.744;2023-06-22T06:50:12;95694.31;;;25.55;72.03
46379;BME280;32084;42.254;22.744;2023-06-22T06:52:38;95691.84;;;25.54;78.23
46379;BME280;32084;42.254;22.744;2023-06-22T06:55:04;95694.53;;;25.65;75.74
46379;BME280;32084;42.254;22.744;2023-06-22T06:57:34;95684.03;;;25.74;74.70
46379;BME280;32084;42.254;22.744;2023-06-22T07:00:00;95684.72;;;25.81;74.20
46379;BME280;32084;42.254;22.744;2023-06-22T07:02:27;95688.44;;;25.75;75.26
46379;BME280;32084;42.254;22.744;2023-06-22T07:04:55;95682.91;;;26.16;73.49
46379;BME280;32084;42.254;22.744;2023-06-22T07:07:21;95679.88;;;26.46;71.94
46379;BME280;32084;42.254;22.744;2023-06-22T07:09:47;95673.25;;;26.59;74.85
46379;BME280;32084;42.254;22.744;2023-06-22T07:12:13;95675.31;;;26.52;71.84
46379;BME280;32084;42.254;22.744;2023-06-22T07:14:39;95676.09;;;26.64;72.89
46379;BME280;32084;42.254;22.744;2023-06-22T07:17:06;95678.19;;;26.74;74.58
46379;BME280;32084;42.254;22.744;2023-06-22T07:19:32;95675.94;;;26.71;70.05
46379;BME280;32084;42.254;22.744;2023-06-22T07:21:58;95682.41;;;26.81;73.97
46379;BME280;32084;42.254;22.744;2023-06-22T07:24:25;95687.63;;;27.00;72.69
46379;BME280;32084;42.254;22.744;2023-06-22T07:26:51;95690.78;;;26.92;71.14
46379;BME280;32084;42.254;22.744;2023-06-22T07:29:17;95681.59;;;26.81;69.90
46379;BME280;32084;42.254;22.744;2023-06-22T07:31:44;95671.19;;;27.22;73.06
46379;BME280;32084;42.254;22.744;2023-06-22T07:34:10;95675.97;;;27.49;70.50
46379;BME280;32084;42.254;22.744;2023-06-22T07:36:36;95680.00;;;27.63;71.49
46379;BME280;32084;42.254;22.744;2023-06-22T07:39:02;95679.22;;;27.68;70.42
46379;BME280;32084;42.254;22.744;2023-06-22T07:41:30;95683.88;;;27.67;70.23
46379;BME280;32084;42.254;22.744;2023-06-22T07:43:56;95674.03;;;27.71;67.92
46379;BME280;32084;42.254;22.744;2023-06-22T07:46:23;95667.31;;;27.84;69.34
46379;BME280;32084;42.254;22.744;2023-06-22T07:48:49;95656.69;;;28.15;68.83
46379;BME280;32084;42.254;22.744;2023-06-22T07:51:15;95661.44;;;28.24;67.82
46379;BME280;32084;42.254;22.744;2023-06-22T07:53:42;95659.19;;;28.49;67.56
46379;BME280;32084;42.254;22.744;2023-06-22T07:56:11;95649.25;;;28.42;66.92
46379;BME280;32084;42.254;22.744;2023-06-22T07:58:38;95657.66;;;28.31;67.94
46379;BME280;32084;42.254;22.744;2023-06-22T08:01:04;95651.31;;;28.57;67.15
46379;BME280;32084;42.254;22.744;2023-06-22T08:03:30;95656.69;;;28.79;63.68
46379;BME280;32084;42.254;22.744;2023-06-22T08:05:56;95660.13;;;28.97;61.50
46379;BME280;32084;42.254;22.744;2023-06-22T08:08:22;95658.16;;;28.92;65.40
46379;BME280;32084;42.254;22.744;2023-06-22T08:10:48;95662.75;;;28.81;65.26
46379;BME280;32084;42.254;22.744;2023-06-22T08:13:14;95659.84;;;28.93;65.85
46379;BME280;32084;42.254;22.744;2023-06-22T08:15:40;95666.13;;;28.89;66.14
46379;BME280;32084;42.254;22.744;2023-06-22T08:18:06;95658.13;;;28.87;66.72
46379;BME280;32084;42.254;22.744;2023-06-22T08:20:33;95667.41;;;28.76;64.58
46379;BME280;32084;42.254;22.744;2023-06-22T08:22:59;95667.38;;;28.71;65.94
46379;BME280;32084;42.254;22.744;2023-06-22T08:25:34;95661.94;;;28.81;65.58
46379;BME280;32084;42.254;22.744;2023-06-22T08:28:03;95659.84;;;28.98;66.07
46379;BME280;32084;42.254;22.744;2023-06-22T08:30:29;95660.97;;;28.97;66.09
46379;BME280;32084;42.254;22.744;2023-06-22T08:32:55;95652.75;;;29.08;62.10
46379;BME280;32084;42.254;22.744;2023-06-22T08:35:22;95649.69;;;29.04;60.35
46379;BME280;32084;42.254;22.744;2023-06-22T08:37:48;95648.38;;;29.07;60.43
46379;BME280;32084;42.254;22.744;2023-06-22T08:40:18;95650.47;;;28.94;59.23
46379;BME280;32084;42.254;22.744;2023-06-22T08:42:45;95643.59;;;28.92;58.92
46379;BME280;32084;42.254;22.744;2023-06-22T08:45:12;95641.28;;;29.16;59.47
46379;BME280;32084;42.254;22.744;2023-06-22T08:47:39;95641.03;;;29.23;62.38
46379;BME280;32084;42.254;22.744;2023-06-22T08:50:05;95633.97;;;29.37;61.41
46379;BME280;32084;42.254;22.744;2023-06-22T08:52:32;95639.25;;;29.59;62.71
46379;BME280;32084;42.254;22.744;2023-06-22T08:54:58;95638.47;;;29.69;59.51
46379;BME280;32084;42.254;22.744;2023-06-22T08:57:24;95636.31;;;29.76;57.96
46379;BME280;32084;42.254;22.744;2023-06-22T08:59:50;95636.31;;;29.76;57.41
46379;BME280;32084;42.254;22.744;2023-06-22T09:02:19;95633.84;;;29.80;58.79
46379;BME280;32084;42.254;22.744;2023-06-22T09:04:48;95634.69;;;29.80;58.24
46379;BME280;32084;42.254;22.744;2023-06-22T09:07:21;95635.97;;;29.62;58.14
46379;BME280;32084;42.254;22.744;2023-06-22T09:09:49;95637.38;;;29.59;57.45
46379;BME280;32084;42.254;22.744;2023-06-22T09:12:15;95620.59;;;29.76;57.84
46379;BME280;32084;42.254;22.744;2023-06-22T09:14:41;95621.78;;;29.96;57.59
46379;BME280;32084;42.254;22.744;2023-06-22T09:17:07;95618.47;;;30.04;55.35
46379;BME280;32084;42.254;22.744;2023-06-22T09:19:33;95624.81;;;29.94;53.16
46379;BME280;32084;42.254;22.744;2023-06-22T09:21:59;95613.75;;;29.79;54.92
46379;BME280;32084;42.254;22.744;2023-06-22T09:24:26;95619.84;;;29.96;53.20
46379;BME280;32084;42.254;22.744;2023-06-22T09:26:52;95613.19;;;29.87;51.84
46379;BME280;32084;42.254;22.744;2023-06-22T09:29:18;95622.84;;;29.85;53.23
46379;BME280;32084;42.254;22.744;2023-06-22T09:31:44;95622.88;;;29.95;54.33
46379;BME280;32084;42.254;22.744;2023-06-22T09:34:11;95618.19;;;30.01;50.61
46379;BME280;32084;42.254;22.744;2023-06-22T09:36:37;95616.56;;;30.10;52.44
46379;BME280;32084;42.254;22.744;2023-06-22T09:39:05;95617.94;;;30.17;54.91
46379;BME280;32084;42.254;22.744;2023-06-22T09:41:32;95620.69;;;30.17;51.95
46379;BME280;32084;42.254;22.744;2023-06-22T09:43:58;95619.59;;;30.24;53.04
46379;BME280;32084;42.254;22.744;2023-06-22T09:46:24;95621.25;;;30.25;52.30
46379;BME280;32084;42.254;22.744;2023-06-22T09:48:51;95615.72;;;30.14;50.07
46379;BME280;32084;42.254;22.744;2023-06-22T09:51:17;95611.31;;;30.13;50.07
46379;BME280;32084;42.254;22.744;2023-06-22T09:53:44;95608.56;;;30.24;52.15
46379;BME280;32084;42.254;22.744;2023-06-22T09:56:10;95620.44;;;30.24;52.10
46379;BME280;32084;42.254;22.744;2023-06-22T09:58:41;95613.81;;;30.30;50.85
46379;BME280;32084;42.254;22.744;2023-06-22T10:01:08;95621.81;;;30.27;51.15
46379;BME280;32084;42.254;22.744;2023-06-22T10:03:34;95624.84;;;30.30;52.08
46379;BME280;32084;42.254;22.744;2023-06-22T10:06:00;95612.75;;;30.42;52.13
46379;BME280;32084;42.254;22.744;2023-06-22T10:08:26;95614.94;;;30.50;51.84
46379;BME280;32084;42.254;22.744;2023-06-22T10:10:52;95615.22;;;30.53;54.10
46379;BME280;32084;42.254;22.744;2023-06-22T10:13:18;95611.38;;;30.65;52.84
46379;BME280;32084;42.254;22.744;2023-06-22T10:15:45;95604.44;;;30.72;52.24
46379;BME280;32084;42.254;22.744;2023-06-22T10:18:15;95602.00;;;30.66;51.75
46379;BME280;32084;42.254;22.744;2023-06-22T10:20:42;95600.06;;;30.51;52.86
46379;BME280;32084;42.254;22.744;2023-06-22T10:23:08;95601.97;;;30.71;49.61
46379;BME280;32084;42.254;22.744;2023-06-22T10:25:35;95601.69;;;30.72;48.93
46379;BME280;32084;42.254;22.744;2023-06-22T10:28:01;95604.16;;;30.84;49.63
46379;BME280;32084;42.254;22.744;2023-06-22T10:30:27;95604.75;;;30.61;49.14
46379;BME280;32084;42.254;22.744;2023-06-22T10:32:54;95592.63;;;30.51;47.61
46379;BME280;32084;42.254;22.744;2023-06-22T10:35:20;95593.72;;;30.35;47.42
46379;BME280;32084;42.254;22.744;2023-06-22T10:37:46;95594.81;;;30.44;47.61
46379;BME280;32084;42.254;22.744;2023-06-22T10:40:13;95598.09;;;30.67;50.56
46379;BME280;32084;42.254;22.744;2023-06-22T10:42:40;95596.72;;;30.80;48.65
46379;BME280;32084;42.254;22.744;2023-06-22T10:45:07;95592.03;;;30.65;48.73
46379;BME280;32084;42.254;22.744;2023-06-22T10:47:34;95588.75;;;30.68;47.66
46379;BME280;32084;42.254;22.744;2023-06-22T10:50:00;95571.06;;;30.79;50.09
46379;BME280;32084;42.254;22.744;2023-06-22T10:52:26;95576.00;;;30.77;50.93
46379;BME280;32084;42.254;22.744;2023-06-22T10:54:53;95579.59;;;30.83;48.58
46379;BME280;32084;42.254;22.744;2023-06-22T10:57:19;95574.63;;;30.69;49.99
46379;BME280;32084;42.254;22.744;2023-06-22T10:59:45;95569.44;;;30.63;48.36
46379;BME280;32084;42.254;22.744;2023-06-22T11:02:11;95567.19;;;30.75;49.57
46379;BME280;32084;42.254;22.744;2023-06-22T11:04:38;95569.97;;;30.70;47.39
46379;BME280;32084;42.254;22.744;2023-06-22T11:07:04;95565.00;;;30.72;48.94
46379;BME280;32084;42.254;22.744;2023-06-22T11:09:30;95568.56;;;30.78;48.95
46379;BME280;32084;42.254;22.744;2023-06-22T11:11:57;95567.47;;;30.73;45.82
46379;BME280;32084;42.254;22.744;2023-06-22T11:14:25;95565.81;;;30.67;48.12
46379;BME280;32084;42.254;22.744;2023-06-22T11:16:51;95561.97;;;30.73;48.89
46379;BME280;32084;42.254;22.744;2023-06-22T11:19:17;95560.28;;;30.78;48.56
46379;BME280;32084;42.254;22.744;2023-06-22T11:21:44;95569.13;;;30.69;46.67
46379;BME280;32084;42.254;22.744;2023-06-22T11:24:10;95566.38;;;30.64;47.30
46379;BME280;32084;42.254;22.744;2023-06-22T11:26:36;95566.63;;;30.78;48.61
46379;BME280;32084;42.254;22.744;2023-06-22T11:29:02;95566.09;;;30.71;47.20
46379;BME280;32084;42.254;22.744;2023-06-22T11:31:31;95566.66;;;30.58;44.81
46379;BME280;32084;42.254;22.744;2023-06-22T11:33:58;95565.81;;;30.72;45.58
46379;BME280;32084;42.254;22.744;2023-06-22T11:36:24;95556.69;;;30.87;47.58
46379;BME280;32084;42.254;22.744;2023-06-22T11:38:51;95556.13;;;30.90;47.73
46379;BME280;32084;42.254;22.744;2023-06-22T11:41:17;95557.22;;;30.84;46.23
46379;BME280;32084;42.254;22.744;2023-06-22T11:43:43;95545.34;;;30.89;46.79
46379;BME280;32084;42.254;22.744;2023-06-22T11:46:10;95552.56;;;30.90;46.67
46379;BME280;32084;42.254;22.744;2023-06-22T11:48:36;95547.03;;;30.95;48.36
46379;BME280;32084;42.254;22.744;2023-06-22T11:51:02;95554.50;;;30.94;49.33
46379;BME280;32084;42.254;22.744;2023-06-22T11:53:29;95556.13;;;30.96;48.81
46379;BME280;32084;42.254;22.744;2023-06-22T11:55:55;95549.19;;;31.03;47.69
46379;BME280;32084;42.254;22.744;2023-06-22T11:58:21;95548.38;;;31.08;45.53
46379;BME280;32084;42.254;22.744;2023-06-22T12:00:48;95541.72;;;31.09;44.32
46379;BME280;32084;42.254;22.744;2023-06-22T12:03:14;95538.16;;;31.03;47.03
46379;BME280;32084;42.254;22.744;2023-06-22T12:05:40;95535.13;;;31.05;46.85
46379;BME280;32084;42.254;22.744;2023-06-22T12:08:06;95537.88;;;31.10;47.05
46379;BME280;32084;42.254;22.744;2023-06-22T12:10:33;95531.47;;;31.14;49.18
46379;BME280;32084;42.254;22.744;2023-06-22T12:13:00;95538.66;;;31.16;45.42
46379;BME280;32084;42.254;22.744;2023-06-22T12:15:26;95521.34;;;30.84;45.46
46379;BME280;32084;42.254;22.744;2023-06-22T12:17:52;95524.09;;;30.89;44.83
46379;BME280;32084;42.254;22.744;2023-06-22T12:20:19;95524.13;;;30.94;45.44
46379;BME280;32084;42.254;22.744;2023-06-22T12:22:45;95522.19;;;30.74;43.66
46379;BME280;32084;42.254;22.744;2023-06-22T12:25:11;95513.91;;;30.80;47.96
46379;BME280;32084;42.254;22.744;2023-06-22T12:27:37;95514.75;;;30.80;46.08
46379;BME280;32084;42.254;22.744;2023-06-22T12:30:04;95509.22;;;30.80;44.41
46379;BME280;32084;42.254;22.744;2023-06-22T12:32:30;95512.53;;;30.92;47.00
46379;BME280;32084;42.254;22.744;2023-06-22T12:34:56;95504.75;;;31.05;46.52
46379;BME280;32084;42.254;22.744;2023-06-22T12:37:23;95504.75;;;31.05;43.33
46379;BME280;32084;42.254;22.744;2023-06-22T12:39:49;95492.88;;;31.09;45.59
46379;BME280;32084;42.254;22.744;2023-06-22T12:42:15;95498.38;;;31.09;45.69
46379;BME280;32084;42.254;22.744;2023-06-22T12:44:42;95497.59;;;31.04;45.89
46379;BME280;32084;42.254;22.744;2023-06-22T12:47:08;95493.44;;;31.01;45.06
46379;BME280;32084;42.254;22.744;2023-06-22T12:49:35;95487.13;;;30.90;43.17
46379;BME280;32084;42.254;22.744;2023-06-22T12:52:01;95490.69;;;30.86;43.21
46379;BME280;32084;42.254;22.744;2023-06-22T12:54:27;95485.72;;;30.83;44.13
46379;BME280;32084;42.254;22.744;2023-06-22T12:56:55;95485.44;;;30.89;43.24
46379;BME280;32084;42.254;22.744;2023-06-22T12:59:21;95481.59;;;30.90;43.46